createdAt,value
2022-11-10T00:01:04.081Z,4.60
2022-11-10T00:03:51.058Z,5.30
2022-11-10T00:06:38.013Z,4.47
2022-11-10T00:09:24.943Z,4.37
2022-11-10T00:12:11.784Z,4.97
2022-11-10T00:15:16.947Z,3.87
2022-11-10T00:18:04.058Z,4.97
2022-11-10T00:20:50.910Z,4.90
2022-11-10T00:23:38.400Z,4.70
2022-11-10T00:26:25.162Z,5.43
2022-11-10T00:29:11.972Z,5.10
2022-11-10T00:31:58.797Z,4.93
2022-11-10T00:34:45.699Z,4.53
2022-11-10T00:37:32.551Z,6.03
2022-11-10T00:40:19.459Z,5.00
2022-11-10T00:43:06.265Z,5.00
2022-11-10T00:45:53.137Z,5.40
2022-11-10T00:48:39.963Z,6.17
2022-11-10T00:51:27.882Z,5.87
2022-11-10T00:54:14.725Z,6.20
2022-11-10T00:57:01.531Z,6.33
2022-11-10T00:59:48.299Z,6.10
2022-11-10T01:02:35.114Z,6.20
2022-11-10T01:05:21.946Z,6.63
2022-11-10T01:08:09.103Z,7.17
2022-11-10T01:11:05.548Z,6.87
2022-11-10T01:13:52.943Z,7.50
2022-11-10T01:16:39.777Z,6.93
2022-11-10T01:19:26.679Z,8.07
2022-11-10T01:22:13.450Z,7.47
2022-11-10T01:25:00.366Z,7.80
2022-11-10T01:27:47.279Z,7.00
2022-11-10T01:30:34.147Z,8.20
2022-11-10T01:33:21.189Z,7.97
2022-11-10T01:36:09.054Z,7.17
2022-11-10T01:38:55.923Z,7.17
2022-11-10T01:41:42.766Z,7.13
2022-11-10T01:44:29.587Z,7.53
2022-11-10T01:47:16.419Z,8.60
2022-11-10T01:50:03.403Z,9.00
2022-11-10T01:52:51.863Z,9.20
2022-11-10T01:55:41.730Z,8.60
2022-11-10T01:58:32.810Z,8.67
2022-11-10T02:01:19.814Z,8.87
2022-11-10T02:04:08.063Z,9.93
2022-11-10T02:06:55.066Z,9.40
2022-11-10T02:09:41.939Z,9.73
2022-11-10T02:12:38.873Z,9.63
2022-11-10T02:15:25.857Z,10.40
2022-11-10T02:18:12.727Z,10.60
2022-11-10T02:20:59.551Z,10.43
2022-11-10T02:23:49.464Z,11.93
2022-11-10T02:26:40.011Z,10.80
2022-11-10T02:29:26.821Z,10.30
2022-11-10T02:32:13.742Z,10.77
2022-11-10T02:35:00.636Z,11.57
2022-11-10T02:37:47.499Z,11.50
2022-11-10T02:40:34.359Z,11.77
2022-11-10T02:43:21.595Z,11.67
2022-11-10T02:46:08.751Z,11.50
2022-11-10T02:48:55.586Z,12.73
2022-11-10T02:51:42.362Z,11.83
2022-11-10T02:54:29.205Z,12.77
2022-11-10T02:57:15.985Z,12.27
2022-11-10T03:00:03.324Z,11.10
2022-11-10T03:02:55.750Z,12.17
2022-11-10T03:05:42.674Z,12.20
2022-11-10T03:08:29.449Z,12.67
2022-11-10T03:11:16.302Z,12.13
2022-11-10T03:14:03.810Z,14.13
2022-11-10T03:16:50.690Z,13.13
2022-11-10T03:19:37.481Z,13.50
2022-11-10T03:22:24.370Z,12.57
2022-11-10T03:25:11.529Z,14.00
2022-11-10T03:27:58.442Z,13.80
2022-11-10T03:30:45.293Z,13.67
2022-11-10T03:33:32.343Z,14.20
2022-11-10T03:36:19.177Z,14.63
2022-11-10T03:39:06.039Z,14.77
2022-11-10T03:41:53.764Z,16.50
2022-11-10T03:44:40.590Z,16.13
2022-11-10T03:47:27.606Z,17.00
2022-11-10T03:50:15.561Z,17.27
2022-11-10T03:53:02.588Z,16.23
2022-11-10T03:55:49.404Z,17.20
2022-11-10T03:58:36.949Z,17.63
2022-11-10T04:01:24.071Z,18.10
2022-11-10T04:04:31.170Z,18.80
2022-11-10T04:07:36.326Z,17.83
2022-11-10T04:10:23.866Z,18.13
2022-11-10T04:13:29.522Z,19.13
2022-11-10T04:16:16.371Z,17.87
2022-11-10T04:19:04.113Z,18.40
2022-11-10T04:21:51.127Z,18.37
2022-11-10T04:24:37.954Z,19.40
2022-11-10T04:27:24.975Z,20.17
2022-11-10T04:30:11.995Z,19.83
2022-11-10T04:32:58.899Z,18.77
2022-11-10T04:35:45.702Z,19.57
2022-11-10T04:38:32.563Z,20.37
2022-11-10T04:41:19.431Z,18.23
2022-11-10T04:44:06.368Z,19.97
2022-11-10T04:46:53.122Z,19.43
2022-11-10T04:49:39.901Z,21.50
2022-11-10T04:52:26.718Z,20.43
2022-11-10T04:55:13.643Z,20.70
2022-11-10T04:58:00.505Z,21.03
2022-11-10T05:00:47.451Z,22.03
2022-11-10T05:03:34.271Z,21.87
2022-11-10T05:06:21.441Z,22.83
2022-11-10T05:09:08.353Z,22.20
2022-11-10T05:11:55.160Z,23.53
2022-11-10T05:14:42.020Z,23.17
2022-11-10T05:17:28.815Z,23.73
2022-11-10T05:20:16.303Z,23.60
2022-11-10T05:23:21.741Z,22.60
2022-11-10T05:26:08.714Z,22.93
2022-11-10T05:28:55.610Z,23.33
2022-11-10T05:31:42.490Z,24.23
2022-11-10T05:34:29.345Z,23.13
2022-11-10T05:37:16.224Z,23.90
2022-11-10T05:40:03.086Z,24.10
2022-11-10T05:42:53.058Z,22.13
2022-11-10T05:45:39.867Z,23.37
2022-11-10T05:48:26.738Z,23.90
2022-11-10T05:51:13.649Z,23.27
2022-11-10T05:54:00.561Z,23.97
2022-11-10T05:56:47.463Z,24.67
2022-11-10T05:59:34.396Z,22.63
2022-11-10T06:02:21.221Z,24.20
2022-11-10T06:05:08.525Z,23.40
2022-11-10T06:07:55.584Z,23.30
2022-11-10T06:10:42.450Z,24.13
2022-11-10T06:13:29.437Z,22.70
2022-11-10T06:16:16.245Z,24.03
2022-11-10T06:19:03.087Z,24.93
2022-11-10T06:21:51.254Z,23.07
2022-11-10T06:24:39.685Z,23.07
2022-11-10T06:27:26.540Z,24.60
2022-11-10T06:30:13.852Z,24.37
2022-11-10T06:33:00.981Z,24.03
2022-11-10T06:35:47.859Z,24.33
2022-11-10T06:38:34.690Z,24.17
2022-11-10T06:41:25.272Z,23.07
2022-11-10T06:44:12.387Z,24.40
2022-11-10T06:46:59.218Z,24.67
2022-11-10T06:49:46.114Z,24.80
2022-11-10T06:52:33.116Z,23.20
2022-11-10T06:55:19.930Z,24.13
2022-11-10T06:58:06.738Z,23.93
2022-11-10T07:00:53.565Z,24.07
2022-11-10T07:03:58.493Z,24.00
2022-11-10T07:06:50.469Z,23.07
2022-11-10T07:09:37.944Z,22.63
2022-11-10T07:12:24.805Z,22.20
2022-11-10T07:15:11.599Z,21.73
2022-11-10T07:17:58.468Z,20.37
2022-11-10T07:20:46.367Z,21.53
2022-11-10T07:23:34.962Z,20.87
2022-11-10T07:26:22.070Z,20.67
2022-11-10T07:29:09.028Z,20.67
2022-11-10T07:31:56.143Z,21.83
2022-11-10T07:34:43.286Z,20.43
2022-11-10T07:37:30.150Z,20.67
2022-11-10T07:40:17.034Z,19.30
2022-11-10T07:43:04.236Z,20.73
2022-11-10T07:45:51.550Z,19.67
2022-11-10T07:48:38.524Z,19.47
2022-11-10T07:51:27.079Z,18.97
2022-11-10T07:54:13.939Z,18.13
2022-11-10T07:57:01.225Z,18.77
2022-11-10T07:59:48.071Z,17.67
2022-11-10T08:02:34.882Z,17.63
2022-11-10T08:05:21.742Z,16.87
2022-11-10T08:08:08.938Z,17.80
2022-11-10T08:10:57.297Z,16.63
2022-11-10T08:13:44.067Z,17.00
2022-11-10T08:16:30.920Z,17.57
2022-11-10T08:19:17.775Z,16.77
2022-11-10T08:22:04.653Z,16.90
2022-11-10T08:24:51.415Z,16.30
2022-11-10T08:27:38.263Z,20.40
2022-11-10T08:30:25.257Z,17.03
2022-11-10T08:33:13.187Z,18.17
2022-11-10T08:36:01.279Z,16.93
2022-11-10T08:38:48.491Z,17.47
2022-11-10T08:41:35.329Z,22.07
2022-11-10T08:44:22.114Z,20.10
2022-11-10T08:47:08.904Z,16.33
2022-11-10T08:49:55.860Z,17.27
2022-11-10T08:52:42.734Z,17.40
2022-11-10T08:55:30.662Z,16.73
2022-11-10T08:58:18.711Z,16.70
2022-11-10T09:01:09.482Z,17.60
2022-11-10T09:03:56.381Z,17.37
2022-11-10T09:06:43.397Z,18.87
2022-11-10T09:09:30.911Z,19.00
2022-11-10T09:12:17.848Z,17.40
2022-11-10T09:15:05.017Z,16.13
2022-11-10T09:17:51.980Z,15.63
2022-11-10T09:20:39.078Z,16.60
2022-11-10T09:23:26.498Z,15.80
2022-11-10T09:26:13.415Z,16.43
2022-11-10T09:29:00.287Z,14.80
2022-11-10T09:31:47.308Z,15.20
2022-11-10T09:34:34.162Z,14.87
2022-11-10T09:37:22.123Z,14.23
2022-11-10T09:40:15.162Z,14.03
2022-11-10T09:43:03.089Z,13.43
2022-11-10T09:45:51.604Z,13.77
2022-11-10T09:48:42.670Z,13.30
2022-11-10T09:51:32.512Z,12.77
2022-11-10T09:54:39.142Z,12.70
2022-11-10T09:57:27.105Z,12.27
2022-11-10T10:00:17.637Z,11.87
2022-11-10T10:03:05.497Z,11.13
2022-11-10T10:06:12.393Z,10.53
2022-11-10T10:09:03.995Z,9.93
2022-11-10T10:12:07.056Z,9.97
2022-11-10T10:15:03.135Z,9.63
2022-11-10T10:17:53.005Z,9.30
2022-11-10T10:20:39.839Z,10.13
2022-11-10T10:23:53.970Z,8.67
2022-11-10T10:26:38.976Z,7.67
2022-11-10T10:29:33.109Z,8.50
2022-11-10T10:32:24.011Z,8.57
2022-11-10T10:35:17.651Z,7.60
2022-11-10T10:38:05.637Z,6.93
2022-11-10T10:40:53.155Z,7.37
2022-11-10T10:43:46.435Z,6.80
2022-11-10T10:46:42.907Z,7.43
2022-11-10T10:49:31.383Z,6.60
2022-11-10T10:52:24.903Z,6.87
2022-11-10T10:55:13.618Z,5.83
2022-11-10T10:58:02.219Z,5.17
2022-11-10T11:00:51.825Z,5.53
2022-11-10T11:03:43.506Z,5.90
2022-11-10T11:06:31.849Z,5.20
2022-11-10T11:09:20.137Z,4.80
2022-11-10T11:12:08.587Z,5.07
2022-11-10T11:15:14.438Z,4.87
2022-11-10T11:18:05.208Z,3.93
2022-11-10T11:20:51.993Z,4.30
2022-11-10T11:23:47.899Z,4.00
2022-11-10T11:26:37.694Z,3.33
2022-11-10T11:30:03.555Z,4.00
2022-11-10T11:33:08.754Z,3.70
2022-11-10T11:36:01.287Z,3.40
2022-11-10T11:38:48.065Z,3.10
2022-11-10T11:41:46.928Z,3.30
2022-11-10T11:44:42.643Z,3.63
2022-11-10T11:47:37.548Z,3.20
2022-11-10T11:50:37.039Z,3.47
2022-11-10T11:53:29.870Z,3.03
2022-11-10T11:56:22.862Z,3.20
2022-11-10T11:59:28.256Z,3.40
2022-11-10T12:02:37.549Z,3.50
2022-11-10T12:05:44.081Z,3.30
2022-11-10T12:08:33.913Z,3.47
2022-11-10T12:11:26.586Z,3.20
2022-11-10T12:14:33.205Z,3.30
2022-11-10T12:17:24.800Z,3.30
2022-11-10T12:20:35.267Z,3.30
2022-11-10T12:23:22.791Z,3.27
2022-11-10T12:26:12.712Z,3.30
2022-11-10T12:29:19.724Z,3.10
2022-11-10T12:32:10.181Z,3.10
2022-11-10T12:35:32.431Z,3.37
2022-11-10T12:38:19.653Z,3.07
2022-11-10T12:41:12.596Z,2.87
2022-11-10T12:43:59.347Z,3.30
2022-11-10T12:46:51.802Z,2.73
2022-11-10T12:49:48.248Z,3.10
2022-11-10T12:52:41.757Z,3.30
2022-11-10T12:55:33.726Z,3.00
2022-11-10T12:58:20.870Z,2.90
2022-11-10T13:01:13.930Z,2.60
2022-11-10T13:04:01.055Z,3.23
2022-11-10T13:06:53.068Z,2.60
2022-11-10T13:09:43.896Z,3.20
2022-11-10T13:12:30.743Z,2.97
2022-11-10T13:15:35.645Z,2.93
2022-11-10T13:18:24.385Z,3.00
2022-11-10T13:21:11.437Z,2.83
2022-11-10T13:24:18.508Z,2.70
2022-11-10T13:27:12.506Z,2.80
2022-11-10T13:30:00.032Z,2.90
2022-11-10T13:32:46.945Z,3.80
2022-11-10T13:35:40.083Z,2.70
2022-11-10T13:38:33.078Z,2.73
2022-11-10T13:41:21.430Z,3.00
2022-11-10T13:44:20.559Z,2.73
2022-11-10T13:47:07.415Z,3.23
2022-11-10T13:49:57.531Z,2.90
2022-11-10T13:52:56.959Z,3.00
2022-11-10T13:56:03.155Z,2.87
2022-11-10T13:58:50.061Z,3.03
2022-11-10T14:01:36.866Z,2.93
2022-11-10T14:04:39.604Z,2.47
2022-11-10T14:07:29.079Z,3.07
2022-11-10T14:10:17.583Z,2.27
2022-11-10T14:13:12.299Z,3.07
2022-11-10T14:15:59.478Z,3.03
2022-11-10T14:18:58.490Z,2.50
2022-11-10T14:21:58.303Z,3.10
2022-11-10T14:24:54.240Z,2.73
2022-11-10T14:27:41.167Z,2.53
2022-11-10T14:30:28.979Z,3.03
2022-11-10T14:33:15.875Z,2.47
2022-11-10T14:36:04.262Z,3.07
2022-11-10T14:38:52.520Z,2.70
2022-11-10T14:41:45.824Z,2.70
2022-11-10T14:44:34.087Z,2.17
2022-11-10T14:47:26.536Z,2.33
2022-11-10T14:50:13.404Z,2.50
2022-11-10T14:53:07.336Z,2.60
2022-11-10T14:55:55.111Z,2.97
2022-11-10T14:58:43.146Z,2.53
2022-11-10T15:01:41.247Z,2.53
2022-11-10T15:04:32.552Z,2.87
2022-11-10T15:07:19.592Z,2.50
2022-11-10T15:10:18.941Z,2.20
2022-11-10T15:13:17.666Z,2.87
2022-11-10T15:16:23.025Z,2.70
2022-11-10T15:19:20.101Z,2.80
2022-11-10T15:22:12.267Z,2.90
2022-11-10T15:25:08.646Z,2.80
2022-11-10T15:28:06.495Z,3.07
2022-11-10T15:30:56.412Z,3.20
2022-11-10T15:33:48.070Z,3.17
2022-11-10T15:36:36.218Z,3.00
2022-11-10T15:39:25.196Z,3.30
2022-11-10T15:42:21.291Z,2.90
2022-11-10T15:45:08.298Z,3.47
2022-11-10T15:47:55.562Z,3.07
2022-11-10T15:50:43.509Z,6.80
2022-11-10T15:53:33.518Z,2.93
2022-11-10T15:56:21.792Z,3.20
2022-11-10T15:59:09.882Z,2.97
2022-11-10T16:01:56.814Z,2.90
2022-11-10T16:04:43.678Z,3.00
2022-11-10T16:07:30.558Z,2.80
2022-11-10T16:10:17.474Z,3.10
2022-11-10T16:13:04.411Z,2.60
2022-11-10T16:15:51.425Z,2.70
2022-11-10T16:18:43.515Z,2.90
2022-11-10T16:21:30.682Z,3.27
2022-11-10T16:24:18.079Z,3.13
2022-11-10T16:27:06.351Z,2.50
2022-11-10T16:29:53.200Z,2.90
2022-11-10T16:32:40.014Z,2.80
2022-11-10T16:35:27.328Z,2.33
2022-11-10T16:38:20.424Z,3.43
2022-11-10T16:41:11.435Z,3.07
2022-11-10T16:43:58.231Z,2.50
2022-11-10T16:46:47.755Z,3.00
2022-11-10T16:49:35.609Z,3.03
2022-11-10T16:52:22.794Z,2.37
2022-11-10T16:55:12.547Z,2.37
2022-11-10T16:57:59.405Z,2.83
2022-11-10T17:00:47.051Z,3.10
2022-11-10T17:03:38.843Z,2.30
2022-11-10T17:06:27.023Z,2.93
2022-11-10T17:09:17.305Z,3.20
2022-11-10T17:12:04.298Z,2.63
2022-11-10T17:14:51.150Z,2.67
2022-11-10T17:17:38.303Z,3.30
2022-11-10T17:20:27.964Z,3.27
2022-11-10T17:23:16.192Z,2.73
2022-11-10T17:26:03.069Z,3.20
2022-11-10T17:28:49.925Z,2.80
2022-11-10T17:31:36.819Z,3.30
2022-11-10T17:34:23.780Z,3.33
2022-11-10T17:37:12.092Z,2.80
2022-11-10T17:39:59.251Z,4.03
2022-11-10T17:42:46.420Z,3.57
2022-11-10T17:45:33.684Z,3.77
2022-11-10T17:48:21.368Z,3.23
2022-11-10T17:51:18.750Z,3.87
2022-11-10T17:54:06.015Z,4.37
2022-11-10T17:56:52.847Z,3.53
2022-11-10T17:59:39.791Z,3.70
2022-11-10T18:02:26.653Z,3.50
2022-11-10T18:05:15.032Z,3.00
2022-11-10T18:08:03.849Z,3.57
2022-11-10T18:10:51.932Z,3.83
2022-11-10T18:13:40.237Z,3.77
2022-11-10T18:16:27.302Z,3.40
2022-11-10T18:19:14.275Z,3.43
2022-11-10T18:22:01.184Z,3.23
2022-11-10T18:24:48.270Z,3.37
2022-11-10T18:27:35.665Z,3.63
2022-11-10T18:30:22.778Z,2.93
2022-11-10T18:33:11.097Z,3.00
2022-11-10T18:36:01.084Z,3.57
2022-11-10T18:38:48.108Z,3.37
2022-11-10T18:41:50.372Z,3.53
2022-11-10T18:44:37.692Z,2.90
2022-11-10T18:47:24.746Z,2.90
2022-11-10T18:50:11.772Z,2.93
2022-11-10T18:52:58.661Z,2.93
2022-11-10T18:55:53.074Z,3.00
2022-11-10T18:58:40.269Z,3.37
2022-11-10T19:01:30.344Z,2.63
2022-11-10T19:04:17.232Z,2.90
2022-11-10T19:07:04.244Z,2.70
2022-11-10T19:09:51.046Z,2.60
2022-11-10T19:12:37.995Z,2.83
2022-11-10T19:15:24.818Z,2.93
2022-11-10T19:18:11.745Z,3.27
2022-11-10T19:20:58.624Z,3.10
2022-11-10T19:23:45.827Z,3.30
2022-11-10T19:26:32.992Z,3.17
2022-11-10T19:29:19.879Z,3.10
2022-11-10T19:32:06.929Z,2.77
2022-11-10T19:34:53.938Z,3.10
2022-11-10T19:37:40.809Z,3.00
2022-11-10T19:40:27.703Z,3.33
2022-11-10T19:43:14.509Z,3.33
2022-11-10T19:46:04.443Z,2.90
2022-11-10T19:48:51.356Z,2.73
2022-11-10T19:51:38.477Z,3.00
2022-11-10T19:54:25.285Z,2.97
2022-11-10T19:57:12.060Z,3.67
2022-11-10T19:59:58.962Z,3.00
2022-11-10T20:02:46.004Z,3.27
2022-11-10T20:05:32.926Z,3.13
2022-11-10T20:08:19.814Z,2.73
2022-11-10T20:11:14.074Z,2.50
2022-11-10T20:14:01.032Z,2.77
2022-11-10T20:16:48.202Z,2.70
2022-11-10T20:19:40.739Z,3.10
2022-11-10T20:22:28.119Z,3.07
2022-11-10T20:25:15.155Z,3.47
2022-11-10T20:28:06.036Z,2.87
2022-11-10T20:30:55.331Z,2.70
2022-11-10T20:33:42.352Z,2.97
2022-11-10T20:36:30.485Z,2.77
2022-11-10T20:39:17.781Z,2.60
2022-11-10T20:42:04.639Z,3.00
2022-11-10T20:44:51.541Z,3.03
2022-11-10T20:47:38.419Z,2.90
2022-11-10T20:50:25.495Z,2.97
2022-11-10T20:53:12.594Z,2.67
2022-11-10T20:56:01.917Z,3.07
2022-11-10T20:58:49.380Z,3.47
2022-11-10T21:01:37.779Z,3.40
2022-11-10T21:04:24.913Z,3.07
2022-11-10T21:07:11.854Z,2.90
2022-11-10T21:09:58.782Z,3.00
2022-11-10T21:12:51.798Z,2.97
2022-11-10T21:15:39.680Z,3.10
2022-11-10T21:18:37.682Z,2.90
2022-11-10T21:21:34.682Z,3.70
2022-11-10T21:24:22.712Z,2.90
2022-11-10T21:27:11.489Z,2.83
2022-11-10T21:29:58.717Z,3.10
2022-11-10T21:32:45.567Z,2.90
2022-11-10T21:35:38.007Z,3.67
2022-11-10T21:38:25.455Z,3.03
2022-11-10T21:41:12.757Z,2.83
2022-11-10T21:43:59.633Z,2.93
2022-11-10T21:46:46.837Z,3.30
2022-11-10T21:49:33.612Z,2.87
2022-11-10T21:52:20.408Z,2.97
2022-11-10T21:55:07.760Z,2.70
2022-11-10T21:57:58.125Z,2.93
2022-11-10T22:00:45.198Z,3.63
2022-11-10T22:03:32.358Z,3.03
2022-11-10T22:06:19.541Z,2.67
2022-11-10T22:09:06.469Z,2.90
2022-11-10T22:12:11.878Z,2.77
2022-11-10T22:15:16.996Z,3.17
2022-11-10T22:18:22.240Z,2.60
2022-11-10T22:21:09.220Z,3.13
2022-11-10T22:24:14.678Z,3.00
2022-11-10T22:27:02.668Z,2.97
2022-11-10T22:29:49.453Z,3.50
2022-11-10T22:32:36.250Z,3.17
2022-11-10T22:35:41.867Z,2.70
2022-11-10T22:38:35.538Z,2.90
2022-11-10T22:41:41.146Z,2.70
2022-11-10T22:44:28.162Z,2.70
2022-11-10T22:47:15.023Z,3.13
2022-11-10T22:50:01.807Z,2.97
2022-11-10T22:52:48.693Z,3.03
2022-11-10T22:55:35.461Z,2.90
2022-11-10T22:58:22.298Z,2.93
2022-11-10T23:01:11.125Z,2.77
2022-11-10T23:03:59.147Z,3.10
2022-11-10T23:06:46.537Z,3.07
2022-11-10T23:09:34.811Z,3.43
2022-11-10T23:12:22.946Z,2.70
2022-11-10T23:15:10.568Z,3.13
2022-11-10T23:18:02.455Z,2.83
2022-11-10T23:20:59.849Z,3.27
2022-11-10T23:23:47.306Z,3.13
2022-11-10T23:26:34.968Z,2.93
2022-11-10T23:29:21.850Z,3.27
2022-11-10T23:32:09.320Z,3.03
2022-11-10T23:34:56.094Z,2.93
2022-11-10T23:37:42.967Z,3.37
2022-11-10T23:40:29.775Z,2.87
2022-11-10T23:43:16.622Z,3.00
2022-11-10T23:46:07.670Z,3.07
2022-11-10T23:48:54.862Z,2.87
2022-11-10T23:51:41.889Z,3.30
2022-11-10T23:54:28.735Z,3.07
2022-11-10T23:57:15.739Z,3.37
